createdAt,value
2023-05-09T00:00:52.853Z,94535.78
2023-05-09T00:05:55.461Z,94527.25
2023-05-09T00:10:57.437Z,94518.72
2023-05-09T00:15:59.657Z,94510.19
2023-05-09T00:21:02.608Z,94509.81
2023-05-09T00:26:04.814Z,94523.00
2023-05-09T00:31:07.030Z,94520.28
2023-05-09T00:36:09.150Z,94524.94
2023-05-09T00:41:11.163Z,94518.72
2023-05-09T00:46:13.190Z,94517.94
2023-05-09T00:51:15.844Z,94501.66
2023-05-09T00:56:17.848Z,94497.72
2023-05-09T01:01:19.841Z,94484.53
2023-05-09T01:06:33.276Z,94476.72
2023-05-09T01:11:39.778Z,94470.50
2023-05-09T01:16:42.882Z,94465.47
2023-05-09T01:21:45.329Z,94472.03
2023-05-09T01:27:14.261Z,94452.25
2023-05-09T01:32:36.654Z,94460.41
2023-05-09T01:37:41.359Z,94466.22
2023-05-09T01:42:50.666Z,94473.53
2023-05-09T01:47:57.722Z,94461.81
2023-05-09T01:53:01.877Z,94474.22
2023-05-09T01:58:05.541Z,94470.31
2023-05-09T02:03:07.986Z,94473.00
2023-05-09T02:08:10.412Z,94475.75
2023-05-09T02:13:12.405Z,94459.06
2023-05-09T02:18:14.263Z,94473.34
2023-05-09T02:23:16.215Z,94465.91
2023-05-09T02:28:18.915Z,94476.69
2023-05-09T02:33:21.167Z,94474.78
2023-05-09T02:38:23.757Z,94471.63
2023-05-09T02:43:25.926Z,94470.78
2023-05-09T02:48:27.922Z,94463.03
2023-05-09T02:53:29.848Z,94460.63
2023-05-09T02:58:31.887Z,94454.41
2023-05-09T03:03:34.889Z,94444.28
2023-05-09T03:08:39.300Z,94445.00
2023-05-09T03:13:42.413Z,94443.78
2023-05-09T03:18:44.613Z,94435.63
2023-05-09T03:23:46.932Z,94430.94
2023-05-09T03:28:49.191Z,94442.22
2023-05-09T03:33:51.201Z,94428.56
2023-05-09T03:38:53.627Z,94444.56
2023-05-09T03:43:56.958Z,94431.69
2023-05-09T03:48:59.175Z,94438.34
2023-05-09T03:54:01.295Z,94433.22
2023-05-09T03:59:04.098Z,94425.03
2023-05-09T04:04:07.722Z,94440.16
2023-05-09T04:09:10.962Z,94441.72
2023-05-09T04:14:16.083Z,94443.22
2023-05-09T04:19:18.070Z,94440.13
2023-05-09T04:24:20.296Z,94442.44
2023-05-09T04:29:23.793Z,94449.00
2023-05-09T04:34:29.892Z,94441.94
2023-05-09T04:39:36.521Z,94426.38
2023-05-09T04:44:48.119Z,94429.53
2023-05-09T04:49:50.705Z,94414.47
2023-05-09T04:54:52.672Z,94421.38
2023-05-09T04:59:57.152Z,94408.97
2023-05-09T05:05:17.507Z,94428.22
2023-05-09T05:10:20.104Z,94437.84
2023-05-09T05:15:29.193Z,94445.56
2023-05-09T05:20:31.468Z,94448.22
2023-05-09T05:25:34.216Z,94460.16
2023-05-09T05:30:37.315Z,94456.63
2023-05-09T05:35:39.427Z,94440.31
2023-05-09T05:40:41.624Z,94435.81
2023-05-09T05:45:44.030Z,94464.06
2023-05-09T05:50:51.392Z,94468.22
2023-05-09T05:55:57.289Z,94485.28
2023-05-09T06:00:59.627Z,94479.06
2023-05-09T06:06:01.963Z,94465.09
2023-05-09T06:11:06.005Z,94464.00
2023-05-09T06:16:18.532Z,94467.09
2023-05-09T06:21:24.037Z,94472.53
2023-05-09T06:26:26.508Z,94464.38
2023-05-09T06:31:28.922Z,94456.78
2023-05-09T06:36:37.347Z,94462.59
2023-05-09T06:41:39.343Z,94451.88
2023-05-09T06:46:42.083Z,94438.09
2023-05-09T06:51:44.690Z,94444.75
2023-05-09T06:56:48.329Z,94448.78
2023-05-09T07:01:50.375Z,94435.81
2023-05-09T07:06:52.506Z,94435.91
2023-05-09T07:11:57.284Z,94432.47
2023-05-09T07:17:13.724Z,94437.13
2023-05-09T07:22:20.798Z,94434.50
2023-05-09T07:27:22.769Z,94439.97
2023-05-09T07:32:24.747Z,94440.09
2023-05-09T07:37:28.201Z,94435.91
2023-05-09T07:42:30.616Z,94442.56
2023-05-09T07:47:33.243Z,94427.09
2023-05-09T07:52:35.324Z,94433.78
2023-05-09T07:57:37.379Z,94434.16
2023-05-09T08:02:39.533Z,94436.84
2023-05-09T08:07:41.714Z,94426.78
2023-05-09T08:12:43.872Z,94436.06
2023-05-09T08:17:45.991Z,94424.00
2023-05-09T08:22:48.013Z,94442.16
2023-05-09T08:27:52.292Z,94424.13
2023-05-09T08:32:56.414Z,94428.25
2023-05-09T08:37:58.466Z,94418.22
2023-05-09T08:43:00.374Z,94420.53
2023-05-09T08:48:03.622Z,94408.59
2023-05-09T08:53:05.758Z,94406.41
2023-05-09T08:58:08.717Z,94403.09
2023-05-09T09:03:11.069Z,94400.75
2023-05-09T09:08:13.849Z,94426.38
2023-05-09T09:13:17.660Z,94429.81
2023-05-09T09:18:23.893Z,94432.66
2023-05-09T09:23:27.508Z,94414.69
2023-05-09T09:28:30.053Z,94405.78
2023-05-09T09:33:32.231Z,94416.75
2023-05-09T09:38:41.455Z,94418.91
2023-05-09T09:43:46.610Z,94400.94
2023-05-09T09:48:55.217Z,94405.75
2023-05-09T09:53:57.157Z,94386.19
2023-05-09T09:59:28.284Z,94403.78
2023-05-09T10:04:34.098Z,94407.31
2023-05-09T10:09:38.172Z,94392.84
2023-05-09T10:14:42.257Z,94382.06
2023-05-09T10:19:45.963Z,94391.47
2023-05-09T10:25:04.124Z,94396.31
2023-05-09T10:30:12.804Z,94392.31
2023-05-09T10:35:17.504Z,94381.66
2023-05-09T10:40:20.157Z,94373.56
2023-05-09T10:45:22.492Z,94365.19
2023-05-09T10:50:24.810Z,94362.25
2023-05-09T10:55:39.980Z,94365.97
2023-05-09T11:00:42.586Z,94379.66
2023-05-09T11:05:45.356Z,94362.84
2023-05-09T11:10:47.869Z,94366.97
2023-05-09T11:16:01.931Z,94368.28
2023-05-09T11:21:09.826Z,94365.97
2023-05-09T11:26:11.825Z,94358.47
2023-05-09T11:31:16.203Z,94377.56
2023-05-09T11:36:28.146Z,94362.81
2023-05-09T11:41:41.422Z,94358.63
2023-05-09T11:46:44.574Z,94363.38
2023-05-09T11:51:46.590Z,94375.06
2023-05-09T11:56:48.490Z,94372.88
2023-05-09T12:01:52.584Z,94373.00
2023-05-09T12:06:54.720Z,94384.59
2023-05-09T12:11:56.898Z,94389.47
2023-05-09T12:16:59.222Z,94380.56
2023-05-09T12:22:07.478Z,94372.88
2023-05-09T12:27:09.805Z,94350.09
2023-05-09T12:32:13.192Z,94357.94
2023-05-09T12:37:17.558Z,94363.38
2023-05-09T12:42:19.632Z,94362.59
2023-05-09T12:47:21.709Z,94370.19
2023-05-09T12:52:23.562Z,94362.69
2023-05-09T12:57:30.140Z,94353.75
2023-05-09T13:02:38.063Z,94359.34
2023-05-09T13:07:45.305Z,94339.75
2023-05-09T13:12:49.396Z,94350.97
2023-05-09T13:17:52.916Z,94345.81
2023-05-09T13:22:55.105Z,94339.56
2023-05-09T13:27:57.654Z,94337.00
2023-05-09T13:33:16.964Z,94342.66
2023-05-09T13:38:25.895Z,94354.66
2023-05-09T13:43:28.324Z,94351.50
2023-05-09T13:48:30.425Z,94357.84
2023-05-09T13:53:32.515Z,94338.66
2023-05-09T13:58:34.805Z,94329.84
2023-05-09T14:03:37.064Z,94335.41
2023-05-09T14:08:40.982Z,94308.88
2023-05-09T14:13:43.227Z,94320.00
2023-05-09T14:18:45.232Z,94310.69
2023-05-09T14:23:47.200Z,94308.94
2023-05-09T14:28:49.234Z,94309.16
2023-05-09T14:33:51.181Z,94307.06
2023-05-09T14:38:53.884Z,94296.94
2023-05-09T14:43:56.091Z,94294.22
2023-05-09T14:49:04.158Z,94296.19
2023-05-09T14:54:06.863Z,94292.34
2023-05-09T14:59:09.657Z,94274.03
2023-05-09T15:04:12.161Z,94290.72
2023-05-09T15:09:14.859Z,94269.63
2023-05-09T15:14:17.101Z,94299.78
2023-05-09T15:19:19.504Z,94285.81
2023-05-09T15:24:22.336Z,94281.34
2023-05-09T15:29:24.318Z,94281.63
2023-05-09T15:34:26.293Z,94263.06
2023-05-09T15:39:28.454Z,94274.03
2023-05-09T15:44:30.780Z,94261.97
2023-05-09T15:49:33.244Z,94265.91
2023-05-09T15:54:36.233Z,94261.97
2023-05-09T15:59:38.315Z,94281.66
2023-05-09T16:04:40.350Z,94283.72
2023-05-09T16:09:43.652Z,94285.66
2023-05-09T16:14:45.616Z,94277.94
2023-05-09T16:19:47.718Z,94285.81
2023-05-09T16:24:49.944Z,94285.25
2023-05-09T16:29:52.018Z,94279.38
2023-05-09T16:34:56.746Z,94266.19
2023-05-09T16:39:59.708Z,94278.38
2023-05-09T16:45:01.669Z,94279.06
2023-05-09T16:50:04.819Z,94284.91
2023-05-09T16:55:06.750Z,94289.16
2023-05-09T17:00:11.645Z,94278.72
2023-05-09T17:05:16.602Z,94284.19
2023-05-09T17:10:18.698Z,94280.69
2023-05-09T17:15:20.935Z,94287.00
2023-05-09T17:20:23.268Z,94285.25
2023-05-09T17:25:25.223Z,94283.38
2023-05-09T17:30:27.327Z,94291.78
2023-05-09T17:35:30.510Z,94265.72
2023-05-09T17:40:32.254Z,94291.44
2023-05-09T17:45:34.300Z,94290.44
2023-05-09T17:50:36.299Z,94299.81
2023-05-09T17:55:38.330Z,94305.72
2023-05-09T18:00:40.250Z,94296.09
2023-05-09T18:05:44.427Z,94298.19
2023-05-09T18:10:46.574Z,94288.22
2023-05-09T18:15:48.814Z,94290.59
2023-05-09T18:20:50.893Z,94293.78
2023-05-09T18:25:54.314Z,94308.94
2023-05-09T18:31:01.506Z,94299.72
2023-05-09T18:36:04.239Z,94308.66
2023-05-09T18:41:07.967Z,94324.78
2023-05-09T18:46:09.910Z,94337.72
2023-05-09T18:51:12.246Z,94346.78
2023-05-09T18:56:14.293Z,94343.38
2023-05-09T19:01:16.825Z,94331.81
2023-05-09T19:06:18.994Z,94333.91
2023-05-09T19:11:20.932Z,94339.00
2023-05-09T19:16:24.961Z,94342.31
2023-05-09T19:21:28.412Z,94349.78
2023-05-09T19:26:30.320Z,94358.03
2023-05-09T19:31:32.358Z,94352.72
2023-05-09T19:36:34.360Z,94349.00
2023-05-09T19:41:36.455Z,94366.16
2023-05-09T19:46:43.040Z,94370.47
2023-05-09T19:51:45.326Z,94367.91
2023-05-09T19:56:47.624Z,94372.97
2023-05-09T20:01:50.973Z,94375.75
2023-05-09T20:06:52.931Z,94382.41
2023-05-09T20:11:54.835Z,94397.28
2023-05-09T20:16:57.172Z,94396.16
2023-05-09T20:22:05.523Z,94404.38
2023-05-09T20:27:07.949Z,94413.75
2023-05-09T20:32:11.362Z,94421.53
2023-05-09T20:37:13.475Z,94410.75
2023-05-09T20:42:15.680Z,94434.44
2023-05-09T20:47:17.637Z,94432.50
2023-05-09T20:52:19.662Z,94437.19
2023-05-09T20:57:21.527Z,94431.38
2023-05-09T21:02:23.492Z,94435.69
2023-05-09T21:07:25.732Z,94438.44
2023-05-09T21:12:27.605Z,94443.44
2023-05-09T21:17:29.568Z,94434.53
2023-05-09T21:22:31.618Z,94450.44
2023-05-09T21:27:33.534Z,94457.03
2023-05-09T21:32:35.445Z,94464.03
2023-05-09T21:37:37.481Z,94470.59
2023-05-09T21:42:44.261Z,94461.66
2023-05-09T21:47:46.525Z,94465.16
2023-05-09T21:52:49.344Z,94465.13
2023-05-09T21:57:52.725Z,94466.31
2023-05-09T22:02:54.819Z,94453.44
2023-05-09T22:07:56.679Z,94461.56
2023-05-09T22:12:58.590Z,94455.75
2023-05-09T22:18:00.503Z,94469.69
2023-05-09T22:23:02.773Z,94471.97
2023-05-09T22:28:04.864Z,94477.38
2023-05-09T22:33:06.854Z,94472.72
2023-05-09T22:38:08.815Z,94483.94
2023-05-09T22:43:11.222Z,94477.28
2023-05-09T22:48:13.164Z,94474.94
2023-05-09T22:53:15.231Z,94473.72
2023-05-09T22:58:17.477Z,94480.25
2023-05-09T23:03:21.641Z,94476.72
2023-05-09T23:08:23.676Z,94477.84
2023-05-09T23:13:26.216Z,94472.03
2023-05-09T23:18:28.788Z,94456.44
2023-05-09T23:23:30.821Z,94457.59
2023-05-09T23:28:32.806Z,94461.50
2023-05-09T23:33:35.626Z,94449.06
2023-05-09T23:38:37.573Z,94473.06
2023-05-09T23:43:39.695Z,94463.31
2023-05-09T23:48:41.839Z,94475.25
2023-05-09T23:53:43.909Z,94472.88
2023-05-09T23:58:45.924Z,94476.66
